M I D A S
Marine Information and Data Acquisition System
Tripno 1890 of the Zeeleeuw from 2010-05-31 07:21:00 to 2010-05-31 11:38:17
Back to CruiseResearch ActivitiesStationsMapUnderway DataData graphs

EquipmentUnitsComment
TimeDGPSUTC
LatitudeDGPSDM.mWGS84
LongitudeDGPSDM.mWGS84
HeadingGyrodeg 
SOGDGPSknotsSpeed over ground
COGDGPSdegCourse over ground
DepthEcho soundermeters200 kHz
Missing or incorrect values are displayed as -999
Navigation data collected by the RV Zeeleeuw from 2010-05-31 06:51:01 to 2010-05-31 11:47:31
Time Latitude Longitude Heading SOG COG Depth
2010-05-31 06:52:06 51°13.661 2°55.959 107.7 0.1 74 6
2010-05-31 06:53:10 51°13.675 2°55.891 109.6 4.4 290 -999
2010-05-31 06:54:10 51°13.715 2°55.773 128 5.5 307 -999
2010-05-31 06:55:10 51°13.775 2°55.678 154 4.5 331 -999
2010-05-31 06:56:10 51°13.829 2°55.65 167 4.7 347 -999
2010-05-31 06:57:10 51°13.905 2°55.618 166.4 4 346 -999
2010-05-31 06:58:10 51°13.957 2°55.621 193 2.6 19 4.7
2010-05-31 06:59:07 51°13.964 2°55.629 207.7 2.1 215 10.8
2010-05-31 07:00:07 51°13.949 2°55.629 248.1 1.9 87 -999
2010-05-31 07:01:09 51°13.955 2°55.583 302 3.7 309 10.6
2010-05-31 07:02:07 51°14.036 2°55.497 331.7 7.9 331 10.6
2010-05-31 07:03:06 51°14.168 2°55.382 332.1 10 328 10.5
2010-05-31 07:04:07 51°14.316 2°55.223 329.3 11 325 9.8
2010-05-31 07:05:06 51°14.473 2°55.062 330 11.8 327 11.1
2010-05-31 07:06:07 51°14.618 2°54.835 318.7 12.9 302 11.4
2010-05-31 07:07:07 51°14.62 2°54.486 251.2 14.1 243 9.4
2010-05-31 07:08:06 51°14.469 2°54.196 233.6 14.5 228 8.9
2010-05-31 07:09:07 51°14.324 2°53.875 234.1 14.8 234 9
2010-05-31 07:10:06 51°14.185 2°53.562 234.8 14.7 238 8.7
2010-05-31 07:11:07 51°14.037 2°53.241 233.1 14.8 228 9
2010-05-31 07:12:06 51°13.891 2°52.931 234.8 14.9 231 9.2
2010-05-31 07:13:07 51°13.746 2°52.612 234.3 14.6 233 9.8
2010-05-31 07:14:06 51°13.605 2°52.31 232.9 14.6 230 9.6
2010-05-31 07:15:07 51°13.461 2°51.998 232.6 14.5 239 9.6
2010-05-31 07:16:07 51°13.316 2°51.707 233 12.8 236 9.5
2010-05-31 07:17:06 51°13.267 2°51.481 281.6 6.4 274 10.3
2010-05-31 07:18:07 51°13.298 2°51.386 340.8 2.9 327 10.1
2010-05-31 07:19:07 51°13.342 2°51.387 22.7 3.6 24 10.8
2010-05-31 07:20:06 51°13.411 2°51.421 16.7 5.7 10 10.4
2010-05-31 07:21:07 51°13.485 2°51.431 15.5 2.1 9 10
2010-05-31 07:22:06 51°13.494 2°51.443 52.4 0.8 101 10.9
2010-05-31 07:23:07 51°13.49 2°51.453 46.7 0.4 159 10.1
2010-05-31 07:24:06 51°13.481 2°51.453 45.1 0.6 197 9.9
2010-05-31 07:25:07 51°13.468 2°51.448 47 0.9 183 10
2010-05-31 07:26:07 51°13.453 2°51.441 50.5 0.7 208 10.1
2010-05-31 07:27:07 51°13.444 2°51.479 97.7 3.1 116 10.4
2010-05-31 07:28:06 51°13.375 2°51.505 184.6 5.6 199 10.3
2010-05-31 07:29:07 51°13.284 2°51.36 236.7 10.4 234 9.7
2010-05-31 07:30:07 51°13.157 2°51.086 237.7 14 239 10.2
2010-05-31 07:31:07 51°13.045 2°50.759 244 14.1 243 9.4
2010-05-31 07:32:07 51°12.937 2°50.423 243.1 14.4 246 10.4
2010-05-31 07:33:07 51°12.829 2°50.083 243.9 14.5 239 10.3
2010-05-31 07:34:06 51°12.718 2°49.751 244.2 14.5 244 10.7
2010-05-31 07:35:06 51°12.607 2°49.415 244.6 14.3 245 10.6
2010-05-31 07:36:07 51°12.494 2°49.073 244.1 14.4 245 10.4
2010-05-31 07:37:07 51°12.382 2°48.743 245.4 14.2 242 10.1
2010-05-31 07:38:07 51°12.271 2°48.408 244.7 14.3 245 10
2010-05-31 07:39:07 51°12.16 2°48.073 244.5 14.3 243 10.5
2010-05-31 07:40:07 51°12.049 2°47.736 245.4 14.3 242 10.6
2010-05-31 07:41:06 51°11.94 2°47.403 243.2 14.5 239 10.7
2010-05-31 07:42:07 51°11.829 2°47.058 244.5 14.5 245 10.4
2010-05-31 07:43:06 51°11.718 2°46.725 245.1 14.6 238 10.4
2010-05-31 07:44:07 51°11.608 2°46.381 245.1 14.5 243 10.9
2010-05-31 07:45:07 51°11.498 2°46.044 244.8 14.3 244 10.1
2010-05-31 07:46:06 51°11.387 2°45.712 244.2 14.6 240 10.7
2010-05-31 07:47:07 51°11.275 2°45.366 243.8 14.3 247 9.5
2010-05-31 07:48:07 51°11.168 2°45.03 244.5 14.3 245 9.6
2010-05-31 07:49:07 51°11.058 2°44.696 243.5 14.2 243 9
2010-05-31 07:50:07 51°10.948 2°44.362 244.3 14.2 244 9.5
2010-05-31 07:51:07 51°10.839 2°44.028 244.7 14.3 240 9.1
2010-05-31 07:52:07 51°10.731 2°43.695 243.8 14.4 241 8.6
2010-05-31 07:53:07 51°10.624 2°43.363 244.6 14 240 8
2010-05-31 07:54:07 51°10.455 2°43.232 178.3 10.2 181 8
2010-05-31 07:55:06 51°10.33 2°43.14 229.3 8.2 234 7.5
2010-05-31 07:56:07 51°10.335 2°42.971 317.5 5.5 310 7.7
2010-05-31 07:57:07 51°10.367 2°42.928 14.4 0.7 299 7.7
2010-05-31 07:58:07 51°10.363 2°42.92 37.6 0.6 218 7.8
2010-05-31 07:59:06 51°10.352 2°42.91 39.3 0.9 200 7.9
2010-05-31 08:00:07 51°10.336 2°42.896 44.8 1.3 198 7.9
2010-05-31 08:01:07 51°10.318 2°42.875 53.5 1.4 220 7.7
2010-05-31 08:02:07 51°10.295 2°42.854 63.3 1.7 207 8.1
2010-05-31 08:03:07 51°10.274 2°42.831 72 1.4 207 7.8
2010-05-31 08:04:07 51°10.271 2°42.86 63.9 2.9 61 7.7
2010-05-31 08:05:07 51°10.33 2°42.978 51.5 8 51 7.4
2010-05-31 08:06:06 51°10.429 2°43.175 50.8 10.8 50 7.6
2010-05-31 08:07:07 51°10.543 2°43.413 56 11.1 51 7.7
2010-05-31 08:08:07 51°10.648 2°43.665 57.4 11.6 59 7.6
2010-05-31 08:09:06 51°10.748 2°43.924 58.6 11.9 56 7.8
2010-05-31 08:10:06 51°10.852 2°44.191 58.9 11.8 52 8.2
2010-05-31 08:11:07 51°10.952 2°44.469 63.2 11.8 56 8.2
2010-05-31 08:12:06 51°11.044 2°44.743 59.1 11.8 65 8.6
2010-05-31 08:13:06 51°11.141 2°45.019 59 12.1 64 9.2
2010-05-31 08:14:07 51°11.245 2°45.295 59.4 11.9 59 9.1
2010-05-31 08:15:06 51°11.347 2°45.561 55.4 12 55 9.6
2010-05-31 08:16:07 51°11.441 2°45.841 61.6 12 67 9.6
2010-05-31 08:17:06 51°11.533 2°46.108 61.1 11.8 69 10
2010-05-31 08:18:07 51°11.625 2°46.387 62.3 11.7 69 10.3
2010-05-31 08:19:06 51°11.714 2°46.658 61 11.9 70 11
2010-05-31 08:20:07 51°11.806 2°46.942 62.2 12 62 10.3
2010-05-31 08:21:06 51°11.897 2°47.214 60.6 11.8 62 10.8
2010-05-31 08:22:07 51°11.99 2°47.496 61 11.8 61 10.4
2010-05-31 08:23:06 51°12.084 2°47.767 60.9 11.9 62 10.2
2010-05-31 08:24:07 51°12.181 2°48.045 59.7 11.7 61 10.8
2010-05-31 08:25:06 51°12.27 2°48.318 63.2 11.7 63 10.4
2010-05-31 08:26:06 51°12.364 2°48.594 61.4 11.8 52 10.5
2010-05-31 08:27:07 51°12.459 2°48.869 56.7 11.6 62 10.5
2010-05-31 08:28:06 51°12.549 2°49.137 60.5 11.7 67 11
2010-05-31 08:29:07 51°12.638 2°49.422 61.8 11.9 70 10.5
2010-05-31 08:30:06 51°12.726 2°49.694 61.4 11.7 62 10.1
2010-05-31 08:31:06 51°12.815 2°49.969 60.5 11.8 68 10.2
2010-05-31 08:32:07 51°12.913 2°50.24 61.1 11.4 56 9.8
2010-05-31 08:33:06 51°13 2°50.503 61.4 11.2 62 10.4
2010-05-31 08:34:07 51°13.091 2°50.772 59.6 11.5 61 9.6
2010-05-31 08:35:07 51°13.177 2°51.04 62.4 11.3 69 9.6
2010-05-31 08:36:07 51°13.266 2°51.306 61.9 11.5 64 9.5
2010-05-31 08:37:06 51°13.356 2°51.566 59.8 11.3 62 9
2010-05-31 08:38:07 51°13.45 2°51.834 62.4 11.3 57 9.4
2010-05-31 08:39:07 51°13.543 2°52.1 60.3 11.5 60 9.1
2010-05-31 08:40:06 51°13.638 2°52.361 58.7 11.6 62 9.4
2010-05-31 08:41:07 51°13.735 2°52.633 59.3 11.6 64 9.2
2010-05-31 08:42:06 51°13.829 2°52.895 57.4 11.9 66 9.2
2010-05-31 08:43:07 51°13.928 2°53.165 59.3 11.7 61 8.7
2010-05-31 08:44:06 51°14.028 2°53.422 55.2 11.6 53 8
2010-05-31 08:45:07 51°14.156 2°53.657 48.1 11.7 48 8.2
2010-05-31 08:46:07 51°14.303 2°53.856 39.2 11.6 38 8
2010-05-31 08:47:06 51°14.48 2°53.963 12.4 12 3 8.5
2010-05-31 08:48:07 51°14.679 2°53.874 345.1 12.4 335 8.9
2010-05-31 08:49:07 51°14.868 2°53.742 345.7 12.4 337 8.6
2010-05-31 08:50:07 51°15.059 2°53.617 347.2 12.4 338 8.7
2010-05-31 08:51:06 51°15.248 2°53.5 346.6 12.6 338 9.4
2010-05-31 08:52:07 51°15.446 2°53.369 346.3 12.7 338 9.6
2010-05-31 08:53:06 51°15.638 2°53.246 347 12.6 338 10.5
2010-05-31 08:54:07 51°15.834 2°53.122 346.8 12.3 338 10.3
2010-05-31 08:55:06 51°16.021 2°52.999 346.7 12.4 336 11.7
2010-05-31 08:56:07 51°16.211 2°52.877 346.9 12.3 338 11.5
2010-05-31 08:57:07 51°16.401 2°52.755 347.8 12.5 339 11.2
2010-05-31 08:58:07 51°16.594 2°52.645 347.2 12.4 340 10.5
2010-05-31 08:59:07 51°16.786 2°52.554 353.8 11.8 348 9.4
2010-05-31 09:00:06 51°16.976 2°52.489 355.1 11.9 349 9.2
2010-05-31 09:01:07 51°17.173 2°52.422 354.3 11.8 348 8.9
2010-05-31 09:02:06 51°17.364 2°52.357 355.1 12 347 9.4
2010-05-31 09:03:07 51°17.564 2°52.315 0.5 11.9 357 9.3
2010-05-31 09:04:06 51°17.755 2°52.324 12.5 11.6 7 9.5
2010-05-31 09:05:07 51°17.939 2°52.413 24.1 11.4 21 10.2
2010-05-31 09:06:06 51°18.104 2°52.543 32 11.3 28 10
2010-05-31 09:07:07 51°18.237 2°52.768 56.2 11.3 59 10.3
2010-05-31 09:08:07 51°18.295 2°53.07 72.3 12.1 77 10.5
2010-05-31 09:09:06 51°18.356 2°53.365 67 12 69 9.9
2010-05-31 09:10:07 51°18.431 2°53.66 65 11.7 63 10.5
2010-05-31 09:11:06 51°18.507 2°53.94 64.1 11.7 70 10
2010-05-31 09:12:07 51°18.59 2°54.225 63 11.8 68 10.6
2010-05-31 09:13:06 51°18.671 2°54.5 62.4 11.7 59 10.6
2010-05-31 09:14:07 51°18.76 2°54.778 58.7 11.4 61 10.6
2010-05-31 09:15:07 51°18.845 2°55.054 63 11.3 62 9.7
2010-05-31 09:16:07 51°18.927 2°55.331 63.2 11.4 61 10
2010-05-31 09:17:06 51°19.004 2°55.606 64.4 11.4 60 10.2
2010-05-31 09:18:06 51°19.084 2°55.881 62.9 11.3 65 10
2010-05-31 09:19:07 51°19.165 2°56.16 62 11.4 62 10.1
2010-05-31 09:20:06 51°19.246 2°56.427 61.5 11.4 66 9.9
2010-05-31 09:21:07 51°19.33 2°56.705 62.1 11.2 67 9.2
2010-05-31 09:22:06 51°19.412 2°56.969 64.3 11.4 56 9.9
2010-05-31 09:23:07 51°19.496 2°57.247 64.7 11.4 63 9.9
2010-05-31 09:24:07 51°19.582 2°57.516 60.4 11.1 61 10.2
2010-05-31 09:25:07 51°19.664 2°57.788 60.2 11.3 62 9.9
2010-05-31 09:26:07 51°19.75 2°58.061 61.7 11.5 55 9.6
2010-05-31 09:27:06 51°19.829 2°58.334 64.9 11.7 63 9.5
2010-05-31 09:28:07 51°19.914 2°58.611 64.5 11.4 63 9.7
2010-05-31 09:29:06 51°19.995 2°58.878 64.4 11.3 61 8.8
2010-05-31 09:30:07 51°20.081 2°59.154 61.5 11.4 57 9.9
2010-05-31 09:31:06 51°20.164 2°59.417 63.1 11.5 67 9.2
2010-05-31 09:32:07 51°20.249 2°59.692 62.9 11.4 60 9.7
2010-05-31 09:33:06 51°20.331 2°59.956 60.3 11.1 64 9.7
2010-05-31 09:34:07 51°20.416 3°0.222 61.9 11 63 9.6
2010-05-31 09:35:07 51°20.497 3°0.487 62.2 11.2 61 9.9
2010-05-31 09:36:06 51°20.573 3°0.753 64.9 11.3 66 9.1
2010-05-31 09:37:07 51°20.656 3°1.026 64.4 11.3 59 9.2
2010-05-31 09:38:07 51°20.732 3°1.298 66.9 11.3 73 9.4
2010-05-31 09:39:06 51°20.777 3°1.586 73.6 11.4 80 10
2010-05-31 09:40:06 51°20.821 3°1.879 73.6 11.3 77 9.7
2010-05-31 09:41:07 51°20.866 3°2.172 74 11.2 72 10.1
2010-05-31 09:42:07 51°20.908 3°2.46 73.4 11.3 69 9.5
2010-05-31 09:43:07 51°20.954 3°2.751 71 11.3 76 9.6
2010-05-31 09:44:07 51°21.04 3°3.014 58.3 11.2 65 9.3
2010-05-31 09:45:06 51°21.134 3°3.262 61.4 11.1 59 10.2
2010-05-31 09:46:07 51°21.215 3°3.531 67.9 11.1 61 10.3
2010-05-31 09:47:06 51°21.29 3°3.795 66.9 11.3 62 10.6
2010-05-31 09:48:07 51°21.366 3°4.07 63.7 10.9 69 10.2
2010-05-31 09:49:07 51°21.44 3°4.339 63.8 11.1 72 11.2
2010-05-31 09:50:06 51°21.518 3°4.604 63 11.3 62 10.7
2010-05-31 09:51:06 51°21.598 3°4.874 63 11.4 67 10.7
2010-05-31 09:52:06 51°21.675 3°5.145 64.3 10.9 67 10.7
2010-05-31 09:53:07 51°21.75 3°5.423 70.1 11.4 75 11.2
2010-05-31 09:54:06 51°21.811 3°5.7 70.8 11.1 71 10.9
2010-05-31 09:55:07 51°21.872 3°5.988 68.8 11.2 67 11
2010-05-31 09:56:06 51°21.933 3°6.269 69.4 11.6 66 11.3
2010-05-31 09:57:06 51°21.981 3°6.563 73.3 11.1 79 11.3
2010-05-31 09:58:07 51°22.024 3°6.867 71.7 11.3 79 11.5
2010-05-31 09:59:06 51°22.065 3°7.159 77.1 11.4 74 11.8
2010-05-31 10:00:06 51°22.108 3°7.452 74.3 11.3 75 11.4
2010-05-31 10:01:06 51°22.152 3°7.749 72.4 11.5 83 12
2010-05-31 10:02:06 51°22.197 3°8.042 72.3 11.2 81 12.2
2010-05-31 10:03:06 51°22.239 3°8.34 73.7 11.5 73 12.1
2010-05-31 10:04:07 51°22.289 3°8.639 73.3 11.4 74 12.1
2010-05-31 10:05:06 51°22.346 3°8.922 69 11.4 75 12.6
2010-05-31 10:06:07 51°22.41 3°9.217 71.2 11.5 69 12.6
2010-05-31 10:07:06 51°22.478 3°9.501 67.4 11.6 69 12.9
2010-05-31 10:08:07 51°22.551 3°9.79 63.6 11.6 74 13.5
2010-05-31 10:09:06 51°22.624 3°10.07 67.4 11.8 67 18
2010-05-31 10:10:06 51°22.697 3°10.359 65.8 11.7 77 14.6
2010-05-31 10:11:06 51°22.736 3°10.66 84.2 12 89 13.6
2010-05-31 10:12:06 51°22.728 3°10.971 90.9 10.9 97 13.6
2010-05-31 10:13:07 51°22.666 3°11.15 135.3 6.4 152 14.3
2010-05-31 10:14:06 51°22.568 3°11.189 153.2 6.2 166 14.8
2010-05-31 10:15:07 51°22.458 3°11.206 185.4 6.4 199 15.8
2010-05-31 10:16:07 51°22.384 3°11.159 176.8 3.2 199 15.6
2010-05-31 10:17:06 51°22.36 3°11.13 143.7 1.7 247 15.8
2010-05-31 10:18:07 51°22.339 3°11.111 106.7 1.5 177 15.9
2010-05-31 10:19:07 51°22.32 3°11.11 83.6 0.9 196 15.6
2010-05-31 10:20:06 51°22.304 3°11.098 76.4 1.1 208 15.9
2010-05-31 10:21:06 51°22.287 3°11.084 67.8 1.3 208 16.2
2010-05-31 10:22:07 51°22.268 3°11.068 62.5 1.3 209 16.7
2010-05-31 10:23:06 51°22.257 3°11.063 44.7 0.4 25 16.7
2010-05-31 10:24:07 51°22.284 3°11.053 349.7 2.7 322 16
2010-05-31 10:25:06 51°22.295 3°10.937 276.9 7.3 268 16.3
2010-05-31 10:26:07 51°22.298 3°10.647 276.5 13.2 273 19.3
2010-05-31 10:27:06 51°22.293 3°10.283 271.7 14.3 267 14.4
2010-05-31 10:28:07 51°22.27 3°9.897 268.9 14.2 266 13.4
2010-05-31 10:29:06 51°22.245 3°9.522 268.4 14.3 266 13
2010-05-31 10:30:06 51°22.222 3°9.145 268.9 14.2 265 12.1
2010-05-31 10:31:07 51°22.199 3°8.763 270.4 14.2 263 12.3
2010-05-31 10:32:06 51°22.177 3°8.398 269.6 14.1 265 12.6
2010-05-31 10:33:07 51°22.153 3°8.022 266.8 13.7 266 11.7
2010-05-31 10:34:06 51°22.131 3°7.656 269.5 14.2 263 12.3
2010-05-31 10:35:06 51°22.108 3°7.284 269.5 14.1 263 11.7
2010-05-31 10:36:06 51°22.086 3°6.911 269 14.3 264 11.8
2010-05-31 10:37:07 51°22.064 3°6.532 269 14.1 265 11.7
2010-05-31 10:38:06 51°22.043 3°6.164 269 14.1 264 11.4
2010-05-31 10:39:06 51°22.022 3°5.79 268.7 14.1 266 11.6
2010-05-31 10:40:07 51°21.999 3°5.412 270.3 14.1 264 12.3
2010-05-31 10:41:06 51°21.978 3°5.049 268.7 13.9 265 11.9
2010-05-31 10:42:06 51°21.956 3°4.677 269.4 14.1 266 12.1
2010-05-31 10:43:06 51°21.933 3°4.299 268.7 14.6 263 11.7
2010-05-31 10:44:07 51°21.91 3°3.914 269.5 14.2 264 11.8
2010-05-31 10:45:06 51°21.885 3°3.545 268.9 14.2 264 11.7
2010-05-31 10:46:06 51°21.863 3°3.171 270.2 14.4 265 11.8
2010-05-31 10:47:06 51°21.838 3°2.795 269.5 14.2 263 11.1
2010-05-31 10:48:06 51°21.812 3°2.421 268 14.1 263 11.3
2010-05-31 10:49:06 51°21.771 3°2.051 257.7 14.4 255 11.5
2010-05-31 10:50:06 51°21.687 3°1.69 251.2 14.7 252 11.5
2010-05-31 10:51:07 51°21.599 3°1.327 251.4 14.3 253 11.3
2010-05-31 10:52:06 51°21.515 3°0.974 252.6 14.3 253 11.7
2010-05-31 10:53:07 51°21.43 3°0.61 253.1 14.5 251 11.4
2010-05-31 10:54:06 51°21.339 3°0.261 246.6 14.4 247 11
2010-05-31 10:55:06 51°21.221 2°59.92 245.1 14.7 241 11
2010-05-31 10:56:06 51°21.108 2°59.576 244.7 14.5 246 11.6
2010-05-31 10:57:06 51°20.987 2°59.242 241.2 14.2 240 11.3
2010-05-31 10:58:06 51°20.858 2°58.919 239.4 14.4 239 11.7
2010-05-31 10:59:06 51°20.729 2°58.597 239.8 14.2 238 11.4
2010-05-31 11:00:07 51°20.598 2°58.267 240.5 14.6 239 11.8
2010-05-31 11:01:07 51°20.467 2°57.946 239.8 14.2 235 11.1
2010-05-31 11:02:07 51°20.337 2°57.622 239.7 14.6 238 12.1
2010-05-31 11:03:06 51°20.209 2°57.302 239.3 14.6 237 12.2
2010-05-31 11:04:07 51°20.077 2°56.971 240.8 14.6 235 11.9
2010-05-31 11:05:06 51°19.95 2°56.648 240.3 14.4 241 11.7
2010-05-31 11:06:07 51°19.817 2°56.321 240.3 14.4 233 11.7
2010-05-31 11:07:06 51°19.691 2°55.999 240.1 14.5 241 11.3
2010-05-31 11:08:07 51°19.56 2°55.665 240.8 14.6 237 11.7
2010-05-31 11:09:07 51°19.43 2°55.337 240.2 14.6 235 11.8
2010-05-31 11:10:06 51°19.302 2°55.015 238.1 14.6 241 12
2010-05-31 11:11:07 51°19.204 2°54.658 258.1 14.4 251 11.7
2010-05-31 11:12:06 51°19.137 2°54.294 258.4 14.7 253 11.7
2010-05-31 11:13:07 51°19.072 2°53.916 259.9 14.5 254 12.2
2010-05-31 11:14:06 51°18.974 2°53.577 240.3 14.7 232 12.2
2010-05-31 11:15:06 51°18.831 2°53.269 229.6 14.2 226 11.3
2010-05-31 11:16:06 51°18.663 2°52.99 227.5 14.4 220 11.5
2010-05-31 11:17:06 51°18.498 2°52.705 229 14.7 233 11.7
2010-05-31 11:18:06 51°18.324 2°52.437 214.5 14.6 210 11
2010-05-31 11:19:06 51°18.105 2°52.289 187.9 15.2 196 11.2
2010-05-31 11:20:07 51°17.866 2°52.255 177.2 13.4 184 11
2010-05-31 11:21:06 51°17.634 2°52.266 173.9 14.1 176 10.6
2010-05-31 11:22:07 51°17.392 2°52.278 173 14.4 181 10.8
2010-05-31 11:23:06 51°17.162 2°52.328 162.1 14.2 163 10.7
2010-05-31 11:24:07 51°16.941 2°52.454 151 13.2 156 9.9
2010-05-31 11:25:06 51°16.734 2°52.594 150.4 13.6 154 10.1
2010-05-31 11:26:06 51°16.528 2°52.753 152.4 13.8 156 11.7
2010-05-31 11:27:06 51°16.354 2°52.861 155 8.6 163 12.8
2010-05-31 11:28:06 51°16.236 2°52.918 150.6 6.5 162 12.5
2010-05-31 11:29:06 51°16.149 2°52.992 131.8 6 148 12.4
2010-05-31 11:30:07 51°16.008 2°53.148 138.7 12.1 143 12.3
2010-05-31 11:31:06 51°15.827 2°53.34 140.4 13.7 144 12
2010-05-31 11:32:06 51°15.642 2°53.534 139.3 13.8 150 11.4
2010-05-31 11:33:06 51°15.453 2°53.719 139.8 13 144 10.3
2010-05-31 11:34:06 51°15.298 2°53.964 125 12.6 131 9.7
2010-05-31 11:35:06 51°15.152 2°54.225 132.4 13.3 137 10.4
2010-05-31 11:36:07 51°14.981 2°54.463 132 13.5 142 10.3
2010-05-31 11:37:06 51°14.8 2°54.668 139.9 13.4 144 11.3
2010-05-31 11:38:07 51°14.613 2°54.881 142.7 13.9 146 11.8
2010-05-31 11:39:06 51°14.436 2°55.085 136.8 13.3 141 10.8
2010-05-31 11:40:07 51°14.262 2°55.291 144.2 11.8 145 11
2010-05-31 11:41:06 51°14.12 2°55.415 154.4 9.2 155 11.2
2010-05-31 11:42:07 51°13.993 2°55.508 155.4 7.4 156 11.3
2010-05-31 11:43:06 51°13.884 2°55.588 155.3 7.3 155 11.1
2010-05-31 11:44:07 51°13.779 2°55.68 144.5 6.7 143 11.6
2010-05-31 11:45:06 51°13.711 2°55.786 125.6 5 126 12.2
2010-05-31 11:46:07 51°13.677 2°55.89 112.7 4.1 112 8.9
2010-05-31 11:47:07 51°13.662 2°55.957 118.1 0.6 118 6.8